PWSweather.com
Personal Weather Stations
Station Observations
ISCHONGA6
Schongau Forchet, SchongauDE 86956

Schongau ForchetSchongauDE 86956

Lat: 47.8049152, Lon: 10.886856699999953

Elevation: 2407

Station Type: Netatmo

Latest ConditionsUpdated 9:28:00 AM GMT+01:01 Sunday, Feb 18, 2018
Currently Today's Max Today's Min Today's Average
Temperature 28.8°F-1.8°C 29.8°F-1.2°C 28.4°F-2.0°C 29.1°F-1.6°C
Dew Point 27.7°F-2.4°C 29.1°F-1.6°C 27.3°F-2.6°C 28.0°F-2.2°C
Winds 0.7 mph 1.1 kmh 1.8 mph NW2.9 kmh NW - 1.0 mph 1.6 kmh
Wind Gusts 3.1 mph5.0 kmh 4.9 mph7.9 kmh - -
Humidity 97% 98% 96% 97%
Pressure 30.21 in1023.0 mb 30.21 in1023.0 mb 30.12 in1020.0 mb -
Hour Temp Dew Point Humidity Winds Wind Gusts Pressure Precip Precip Rate Daily Precip Total
09:28 AM 28.8°F-1.8°C 27.7°F-2.4°C 97% 0.7 mph 1.1 kmh 3.1 mph5.0 kmh 30.21 in1023.0 mb 0.00 in0.0 mm 0.00 in0.0 mm 0.00 in0.0 mm
09:18 AM 28.8°F-1.8°C 27.7°F-2.4°C 97% 1.3 mph N2.1 kmh N 3.1 mph5.0 kmh 30.21 in1023.0 mb 0.00 in0.0 mm 0.00 in0.0 mm 0.00 in0.0 mm
09:08 AM 28.8°F-1.8°C 27.7°F-2.4°C 97% 0.7 mph N1.1 kmh N 2.5 mph4.0 kmh 30.21 in1023.0 mb 0.00 in0.0 mm 0.00 in0.0 mm 0.00 in0.0 mm
08:58 AM 28.6°F-1.9°C 27.5°F-2.5°C 97% 0.7 mph NNW1.1 kmh NNW 2.5 mph4.0 kmh 30.20 in1022.7 mb 0.00 in0.0 mm 0.00 in0.0 mm 0.00 in0.0 mm
08:48 AM 28.8°F-1.8°C 27.7°F-2.4°C 97% 0.7 mph N1.1 kmh N 1.8 mph2.9 kmh 30.20 in1022.7 mb 0.00 in0.0 mm 0.00 in0.0 mm 0.00 in0.0 mm
08:38 AM 28.8°F-1.8°C 27.7°F-2.4°C 97% 0.7 mph E1.1 kmh E 1.8 mph2.9 kmh 30.20 in1022.7 mb 0.00 in0.0 mm 0.00 in0.0 mm 0.00 in0.0 mm
08:28 AM 28.8°F-1.8°C 27.7°F-2.4°C 97% Calm Calm 1.3 mph2.1 kmh 30.21 in1023.0 mb 0.00 in0.0 mm 0.00 in0.0 mm 0.00 in0.0 mm
08:17 AM 28.6°F-1.9°C 27.5°F-2.5°C 97% 0.7 mph N1.1 kmh N 1.8 mph2.9 kmh 30.21 in1023.0 mb 0.00 in0.0 mm 0.00 in0.0 mm 0.00 in0.0 mm
08:08 AM 28.4°F-2.0°C 27.3°F-2.6°C 97% 0.7 mph NNW1.1 kmh NNW 1.8 mph2.9 kmh 30.20 in1022.7 mb 0.00 in0.0 mm 0.00 in0.0 mm 0.00 in0.0 mm
07:58 AM 28.4°F-2.0°C 27.3°F-2.6°C 97% 0.7 mph NW1.1 kmh NW 1.8 mph2.9 kmh 30.20 in1022.7 mb 0.00 in0.0 mm 0.00 in0.0 mm 0.00 in0.0 mm
07:48 AM 28.4°F-2.0°C 27.3°F-2.6°C 97% 0.7 mph NNW1.1 kmh NNW 1.8 mph2.9 kmh 30.20 in1022.7 mb 0.00 in0.0 mm 0.00 in0.0 mm 0.00 in0.0 mm
07:38 AM 28.4°F-2.0°C 27.3°F-2.6°C 97% 0.7 mph 1.1 kmh 1.8 mph2.9 kmh 30.21 in1023.0 mb 0.00 in0.0 mm 0.00 in0.0 mm 0.00 in0.0 mm
07:28 AM 28.6°F-1.9°C 27.5°F-2.5°C 97% Calm Calm 1.3 mph2.1 kmh 30.20 in1022.7 mb 0.00 in0.0 mm 0.00 in0.0 mm 0.00 in0.0 mm
07:18 AM 28.4°F-2.0°C 27.3°F-2.6°C 97% Calm Calm 1.3 mph2.1 kmh 30.20 in1022.7 mb 0.00 in0.0 mm 0.00 in0.0 mm 0.00 in0.0 mm
07:07 AM 28.6°F-1.9°C 27.5°F-2.5°C 97% 0.7 mph N1.1 kmh N 1.8 mph2.9 kmh 30.20 in1022.7 mb 0.00 in0.0 mm 0.00 in0.0 mm 0.00 in0.0 mm
07:05 AM 28.8°F-1.8°C 28.0°F-2.2°C 98% 0.7 mph NW1.1 kmh NW 1.8 mph2.9 kmh 30.19 in1022.4 mb 0.00 in0.0 mm 0.00 in0.0 mm 0.00 in0.0 mm
06:48 AM 28.8°F-1.8°C 28.0°F-2.2°C 98% 0.7 mph NW1.1 kmh NW 1.8 mph2.9 kmh 30.19 in1022.4 mb 0.00 in0.0 mm 0.00 in0.0 mm 0.00 in0.0 mm
06:37 AM 28.8°F-1.8°C 27.7°F-2.4°C 97% 0.7 mph NNW1.1 kmh NNW 2.5 mph4.0 kmh 30.19 in1022.4 mb 0.00 in0.0 mm 0.00 in0.0 mm 0.00 in0.0 mm
06:28 AM 28.8°F-1.8°C 27.7°F-2.4°C 97% 1.3 mph N2.1 kmh N 2.5 mph4.0 kmh 30.19 in1022.4 mb 0.00 in0.0 mm 0.00 in0.0 mm 0.00 in0.0 mm
06:18 AM 28.9°F-1.7°C 27.9°F-2.3°C 97% 0.7 mph N1.1 kmh N 2.5 mph4.0 kmh 30.19 in1022.4 mb 0.00 in0.0 mm 0.00 in0.0 mm 0.00 in0.0 mm
06:08 AM 28.9°F-1.7°C 27.9°F-2.3°C 97% Calm Calm 1.3 mph2.1 kmh 30.19 in1022.4 mb 0.00 in0.0 mm 0.00 in0.0 mm 0.00 in0.0 mm
05:57 AM 28.8°F-1.8°C 27.7°F-2.4°C 97% 0.7 mph NW1.1 kmh NW 1.8 mph2.9 kmh 30.19 in1022.4 mb 0.00 in0.0 mm 0.00 in0.0 mm 0.00 in0.0 mm
05:47 AM 28.8°F-1.8°C 27.7°F-2.4°C 97% 1.3 mph NW2.1 kmh NW 2.5 mph4.0 kmh 30.19 in1022.4 mb 0.00 in0.0 mm 0.00 in0.0 mm 0.00 in0.0 mm
05:38 AM 28.9°F-1.7°C 27.5°F-2.5°C 96% 0.7 mph NW1.1 kmh NW 1.8 mph2.9 kmh 30.19 in1022.4 mb 0.00 in0.0 mm 0.00 in0.0 mm 0.00 in0.0 mm
05:27 AM 28.9°F-1.7°C 27.5°F-2.5°C 96% 1.3 mph WNW2.1 kmh WNW 1.8 mph2.9 kmh 30.18 in1022.0 mb 0.00 in0.0 mm 0.00 in0.0 mm 0.00 in0.0 mm
05:17 AM 28.9°F-1.7°C 27.5°F-2.5°C 96% 1.3 mph NW2.1 kmh NW 1.8 mph2.9 kmh 30.18 in1022.0 mb 0.00 in0.0 mm 0.00 in0.0 mm 0.00 in0.0 mm
05:07 AM 28.9°F-1.7°C 27.9°F-2.3°C 97% 0.7 mph W1.1 kmh W 1.3 mph2.1 kmh 30.18 in1022.0 mb 0.00 in0.0 mm 0.00 in0.0 mm 0.00 in0.0 mm
04:58 AM 28.9°F-1.7°C 27.5°F-2.5°C 96% 0.7 mph NW1.1 kmh NW 1.8 mph2.9 kmh 30.18 in1022.0 mb 0.00 in0.0 mm 0.00 in0.0 mm 0.00 in0.0 mm
04:47 AM 28.9°F-1.7°C 27.5°F-2.5°C 96% 1.3 mph WNW2.1 kmh WNW 1.8 mph2.9 kmh 30.18 in1022.0 mb 0.00 in0.0 mm 0.00 in0.0 mm 0.00 in0.0 mm
04:37 AM 28.9°F-1.7°C 27.5°F-2.5°C 96% 1.3 mph WNW2.1 kmh WNW 1.8 mph2.9 kmh 30.18 in1022.0 mb 0.00 in0.0 mm 0.00 in0.0 mm 0.00 in0.0 mm
04:27 AM 28.9°F-1.7°C 27.5°F-2.5°C 96% 1.3 mph WNW2.1 kmh WNW 2.5 mph4.0 kmh 30.18 in1022.0 mb 0.00 in0.0 mm 0.00 in0.0 mm 0.00 in0.0 mm
04:17 AM 28.9°F-1.7°C 27.5°F-2.5°C 96% 1.3 mph NW2.1 kmh NW 2.5 mph4.0 kmh 30.18 in1022.0 mb 0.00 in0.0 mm 0.00 in0.0 mm 0.00 in0.0 mm
04:07 AM 29.1°F-1.6°C 28.0°F-2.2°C 97% 0.7 mph W1.1 kmh W 1.8 mph2.9 kmh 30.18 in1022.0 mb 0.00 in0.0 mm 0.00 in0.0 mm 0.00 in0.0 mm
03:57 AM 29.1°F-1.6°C 27.7°F-2.4°C 96% 1.3 mph WNW2.1 kmh WNW 2.5 mph4.0 kmh 30.17 in1021.7 mb 0.00 in0.0 mm 0.00 in0.0 mm 0.00 in0.0 mm
03:47 AM 29.3°F-1.5°C 28.2°F-2.1°C 97% 0.7 mph NW1.1 kmh NW 1.3 mph2.1 kmh 30.17 in1021.7 mb 0.00 in0.0 mm 0.00 in0.0 mm 0.00 in0.0 mm
03:37 AM 29.3°F-1.5°C 27.9°F-2.3°C 96% 1.3 mph NW2.1 kmh NW 2.5 mph4.0 kmh 30.17 in1021.7 mb 0.00 in0.0 mm 0.00 in0.0 mm 0.00 in0.0 mm
03:27 AM 29.5°F-1.4°C 28.4°F-2.0°C 97% 0.7 mph W1.1 kmh W 1.8 mph2.9 kmh 30.17 in1021.7 mb 0.00 in0.0 mm 0.00 in0.0 mm 0.00 in0.0 mm
03:17 AM 29.7°F-1.3°C 28.6°F-1.9°C 97% 1.3 mph W2.1 kmh W 2.5 mph4.0 kmh 30.17 in1021.7 mb 0.00 in0.0 mm 0.00 in0.0 mm 0.00 in0.0 mm
03:07 AM 29.7°F-1.3°C 28.6°F-1.9°C 97% 1.3 mph W2.1 kmh W 3.1 mph5.0 kmh 30.17 in1021.7 mb 0.00 in0.0 mm 0.00 in0.0 mm 0.00 in0.0 mm
02:57 AM 29.7°F-1.3°C 28.6°F-1.9°C 97% 1.3 mph W2.1 kmh W 3.1 mph5.0 kmh 30.17 in1021.7 mb 0.00 in0.0 mm 0.00 in0.0 mm 0.00 in0.0 mm
02:47 AM 29.8°F-1.2°C 28.8°F-1.8°C 97% 1.3 mph W2.1 kmh W 3.1 mph5.0 kmh 30.17 in1021.7 mb 0.00 in0.0 mm 0.00 in0.0 mm 0.00 in0.0 mm
02:37 AM 29.8°F-1.2°C 29.1°F-1.6°C 98% 1.3 mph WSW2.1 kmh WSW 2.5 mph4.0 kmh 30.17 in1021.7 mb 0.00 in0.0 mm 0.00 in0.0 mm 0.00 in0.0 mm
02:27 AM 29.7°F-1.3°C 28.9°F-1.7°C 98% 1.3 mph W2.1 kmh W 2.5 mph4.0 kmh 30.16 in1021.3 mb 0.00 in0.0 mm 0.00 in0.0 mm 0.00 in0.0 mm
02:17 AM 29.5°F-1.4°C 28.8°F-1.8°C 98% 1.3 mph W2.1 kmh W 2.5 mph4.0 kmh 30.16 in1021.3 mb 0.00 in0.0 mm 0.00 in0.0 mm 0.00 in0.0 mm
02:07 AM 29.3°F-1.5°C 28.2°F-2.1°C 97% 1.3 mph WNW2.1 kmh WNW 1.8 mph2.9 kmh 30.16 in1021.3 mb 0.00 in0.0 mm 0.00 in0.0 mm 0.00 in0.0 mm
01:56 AM 29.3°F-1.5°C 28.2°F-2.1°C 97% 1.3 mph WNW2.1 kmh WNW 2.5 mph4.0 kmh 30.16 in1021.3 mb 0.00 in0.0 mm 0.00 in0.0 mm 0.00 in0.0 mm
01:47 AM 29.3°F-1.5°C 28.2°F-2.1°C 97% 1.3 mph WNW2.1 kmh WNW 2.5 mph4.0 kmh 30.16 in1021.3 mb 0.00 in0.0 mm 0.00 in0.0 mm 0.00 in0.0 mm
01:37 AM 29.5°F-1.4°C 28.4°F-2.0°C 97% 1.3 mph W2.1 kmh W 3.1 mph5.0 kmh 30.16 in1021.3 mb 0.00 in0.0 mm 0.00 in0.0 mm 0.00 in0.0 mm
01:27 AM 29.3°F-1.5°C 28.2°F-2.1°C 97% 1.3 mph W2.1 kmh W 2.5 mph4.0 kmh 30.15 in1021.0 mb 0.00 in0.0 mm 0.00 in0.0 mm 0.00 in0.0 mm
01:16 AM 29.3°F-1.5°C 28.2°F-2.1°C 97% 1.3 mph WNW2.1 kmh WNW 3.1 mph5.0 kmh 30.15 in1021.0 mb 0.00 in0.0 mm 0.00 in0.0 mm 0.00 in0.0 mm
01:07 AM 29.5°F-1.4°C 28.4°F-2.0°C 97% 1.3 mph WNW2.1 kmh WNW 1.8 mph2.9 kmh 30.14 in1020.7 mb 0.00 in0.0 mm 0.00 in0.0 mm 0.00 in0.0 mm
12:57 AM 29.3°F-1.5°C 28.2°F-2.1°C 97% 1.3 mph NW2.1 kmh NW 2.5 mph4.0 kmh 30.14 in1020.7 mb 0.00 in0.0 mm 0.00 in0.0 mm 0.00 in0.0 mm
12:46 AM 29.5°F-1.4°C 28.4°F-2.0°C 97% 1.8 mph NW2.9 kmh NW 4.3 mph6.9 kmh 30.14 in1020.7 mb 0.00 in0.0 mm 0.00 in0.0 mm 0.00 in0.0 mm
12:37 AM 29.5°F-1.4°C 28.4°F-2.0°C 97% 1.8 mph NW2.9 kmh NW 4.9 mph7.9 kmh 30.13 in1020.3 mb 0.00 in0.0 mm 0.00 in0.0 mm 0.00 in0.0 mm
12:27 AM 29.5°F-1.4°C 28.8°F-1.8°C 98% 1.8 mph NW2.9 kmh NW 4.3 mph6.9 kmh 30.13 in1020.3 mb 0.00 in0.0 mm 0.00 in0.0 mm 0.00 in0.0 mm
12:16 AM 29.5°F-1.4°C 28.8°F-1.8°C 98% 1.3 mph NW2.1 kmh NW 3.1 mph5.0 kmh 30.12 in1020.0 mb 0.00 in0.0 mm 0.00 in0.0 mm 0.00 in0.0 mm
12:06 AM 29.7°F-1.3°C 28.9°F-1.7°C 98% 0.7 mph W1.1 kmh W 2.5 mph4.0 kmh 30.12 in1020.0 mb 0.00 in0.0 mm 0.00 in0.0 mm 0.00 in0.0 mm